Time;durP1;ratioP1;P1;durP2;ratioP2;P2;SDS_P1;SDS_P2;PMS_P1;PMS_P2;Temp;Humidity;BMP_temperature;BMP_pressure;BME280_temperature;BME280_humidity;BME280_pressure;Samples;Min_cycle;Max_cycle;Signal;HPM_P1;HPM_P2
2021/07/23 05:46:51;;;;;;;;;25.00;20.00;;;;;21.80;56.39;101302.56;5090215;24;45475;-84
2021/07/23 05:49:16;;;;;;;;;22.67;20.00;;;;;21.86;56.39;101312.28;4827262;29;45437;-83
2021/07/23 05:51:41;;;;;;;;;21.33;20.00;;;;;21.84;56.29;101298.94;4827840;29;45368;-81
2021/07/23 05:54:07;;;;;;;;;20.00;18.00;;;;;21.89;56.38;101306.88;4828279;29;45341;-80
2021/07/23 05:56:32;;;;;;;;;16.00;15.67;;;;;21.91;56.73;101299.69;4828031;29;45264;-80
2021/07/23 05:58:57;;;;;;;;;19.33;18.67;;;;;21.92;56.46;101296.09;4827877;29;45225;-81
2021/07/23 06:01:23;;;;;;;;;21.33;18.33;;;;;21.94;55.63;101296.94;4828000;29;45415;-81
2021/07/23 06:03:48;;;;;;;;;19.00;16.33;;;;;21.94;56.42;101290.69;4828086;29;45368;-80
2021/07/23 06:06:14;;;;;;;;;18.67;17.67;;;;;21.95;55.96;101274.63;4827533;29;45785;-80
2021/07/23 06:08:39;;;;;;;;;21.33;18.33;;;;;21.96;56.17;101272.81;4827853;29;45347;-80
2021/07/23 06:11:06;;;;;;;;;20.33;19.67;;;;;21.97;56.02;101275.47;4827645;29;45254;-80
2021/07/23 06:13:34;;;;;;;;;21.67;20.00;;;;;21.97;56.46;101272.81;4828027;29;45464;-80
2021/07/23 06:16:02;;;;;;;;;19.00;19.00;;;;;22.00;56.37;101265.63;4827377;29;46230;-81
2021/07/23 06:18:28;;;;;;;;;22.00;19.67;;;;;22.00;56.16;101261.13;4826039;29;45738;-81
2021/07/23 06:20:53;;;;;;;;;26.33;23.67;;;;;22.02;55.74;101266.47;4826169;29;45674;-80
2021/07/23 06:23:18;;;;;;;;;23.33;21.67;;;;;22.01;55.88;101262.91;4809440;29;45267;-80
2021/07/23 06:25:44;;;;;;;;;20.00;18.33;;;;;22.01;55.99;101251.31;4808418;29;46026;-82
2021/07/23 06:28:09;;;;;;;;;22.33;20.67;;;;;22.05;56.02;101256.56;4809202;29;45324;-82
2021/07/23 06:30:35;;;;;;;;;28.33;24.33;;;;;22.05;56.27;101253.00;4808955;29;45307;-82
2021/07/23 06:33:00;;;;;;;;;21.67;19.67;;;;;22.06;55.84;101250.28;4811158;29;45327;-82
2021/07/23 06:35:29;;;;;;;;;27.33;23.00;;;;;22.09;56.30;101252.91;4818395;29;45489;-82
2021/07/23 06:37:54;;;;;;;;;27.00;22.33;;;;;22.12;56.06;101253.75;4808003;29;45353;-82
2021/07/23 06:40:20;;;;;;;;;20.33;19.00;;;;;22.14;56.34;101251.91;4808841;29;45813;-82
2021/07/23 06:42:45;;;;;;;;;27.33;19.67;;;;;22.12;56.26;101243.03;4809196;29;45402;-82
2021/07/23 06:45:14;;;;;;;;;21.67;21.67;;;;;22.17;56.11;101251.81;4808484;29;46050;-83
2021/07/23 06:47:40;;;;;;;;;21.33;20.33;;;;;22.16;56.26;101242.03;4793006;29;45590;-96
2021/07/23 06:56:55;;;;;;;;;;;;;;;;;;;;;
2021/07/23 07:05:47;;;;;;;;;22.67;21.33;;;;;22.36;56.85;101246.06;4850165;24;45227;-93
2021/07/23 07:09:25;;;;;;;;;22.67;20.67;;;;;22.22;56.46;101207.09;4823407;29;47283;-93
2021/07/23 07:22:01;;;;;;;;;26.33;23.00;;;;;22.42;55.40;101190.53;4737795;30;45578;-93
2021/07/23 07:28:24;;;;;;;;;23.33;21.00;;;;;22.56;56.46;101216.09;4986276;24;46703;-90
2021/07/23 07:31:16;;;;;;;;;21.00;18.67;;;;;22.68;56.62;101233.69;4818531;29;45348;-94
2021/07/23 07:33:51;;;;;;;;;;;;;;;;;;;;;
2021/07/23 07:36:33;;;;;;;;;22.33;20.33;;;;;22.70;55.42;101233.63;5114523;24;72599;-91
2021/07/23 07:42:17;;;;;;;;;;;;;;;;;;;;;
2021/07/23 07:44:46;;;;;;;;;23.67;21.33;;;;;22.85;55.84;101233.25;4848420;29;74787;-93
2021/07/23 07:50:03;;;;;;;;;19.00;19.00;;;;;22.98;55.88;101227.56;4736464;27;45303;-91
2021/07/23 07:52:29;;;;;;;;;23.67;20.33;;;;;22.96;55.85;101213.31;4820713;29;45274;-89
2021/07/23 07:54:55;;;;;;;;;24.33;22.00;;;;;23.06;56.31;101224.66;4814824;29;45199;-90
2021/07/23 07:57:20;;;;;;;;;19.33;17.33;;;;;23.14;55.44;101228.00;4811313;29;45270;-90
2021/07/23 07:59:45;;;;;;;;;18.00;16.67;;;;;23.15;56.29;101213.69;4809497;29;45471;-86
2021/07/23 08:02:13;;;;;;;;;24.00;22.00;;;;;23.13;55.17;101202.13;4812412;29;45373;-94
2021/07/23 08:04:38;;;;;;;;;26.67;23.00;;;;;23.19;55.19;101198.38;4796132;29;47184;-93
2021/07/23 08:07:13;;;;;;;;;20.67;18.00;;;;;23.37;55.02;101218.44;4812200;29;45415;-88
2021/07/23 08:09:52;;;;;;;;;25.67;23.33;;;;;23.43;55.22;101222.75;4808637;29;45258;-86
2021/07/23 08:12:19;;;;;;;;;22.67;22.00;;;;;23.52;55.57;101218.97;4808174;29;45249;-84
2021/07/23 08:14:45;;;;;;;;;23.00;21.67;;;;;23.55;55.34;101205.44;4808508;29;45243;-86
2021/07/23 08:17:10;;;;;;;;;24.67;19.33;;;;;23.66;55.24;101206.00;4809037;29;45255;-80
2021/07/23 08:19:37;;;;;;;;;24.00;20.67;;;;;23.75;54.34;101206.66;4808025;29;45225;-84
2021/07/23 08:22:04;;;;;;;;;18.33;18.00;;;;;23.79;55.25;101198.47;4809004;29;45317;-91
2021/07/23 08:24:30;;;;;;;;;22.67;21.00;;;;;23.92;55.36;101200.75;4800846;29;46944;-91
2021/07/23 08:26:56;;;;;;;;;24.67;22.00;;;;;24.02;55.09;101195.97;4793073;29;45313;-93
2021/07/23 08:29:34;;;;;;;;;26.33;24.00;;;;;24.15;54.90;101188.41;4810899;29;45361;-93
2021/07/23 08:32:13;;;;;;;;;23.67;20.67;;;;;24.31;54.13;101167.31;4796635;29;45584;-94
2021/07/23 08:34:39;;;;;;;;;28.00;22.33;;;;;24.67;54.77;101186.69;4809552;29;48033;-95
2021/07/23 08:37:06;;;;;;;;;16.67;16.67;;;;;24.87;54.27;101169.88;4794107;29;45537;-95
2021/07/23 08:39:31;;;;;;;;;27.67;22.67;;;;;25.42;53.39;101182.25;4809294;29;45349;-95
2021/07/23 08:41:57;;;;;;;;;22.67;20.00;;;;;25.97;52.90;101165.81;4792872;29;45220;-95
2021/07/23 08:44:25;;;;;;;;;22.67;19.00;;;;;26.78;52.08;101162.41;4792267;29;46422;-95
2021/07/23 08:46:51;;;;;;;;;26.00;23.33;;;;;27.73;50.29;101175.25;4792573;29;45708;-93
2021/07/23 08:49:25;;;;;;;;;23.33;22.33;;;;;28.32;48.77;101153.44;4794165;29;45180;-93
2021/07/23 08:51:52;;;;;;;;;21.33;19.67;;;;;29.30;46.93;101161.94;4795859;29;45188;-93
2021/07/23 08:54:20;;;;;;;;;27.00;21.67;;;;;29.89;45.69;101152.38;4810435;29;47920;-93
2021/07/23 08:56:47;;;;;;;;;21.67;21.67;;;;;30.26;44.75;101184.56;4795259;29;46027;-92
2021/07/23 08:59:12;;;;;;;;;22.00;22.00;;;;;30.18;44.63;101157.91;4811699;29;45226;-90
2021/07/23 09:02:09;;;;;;;;;24.00;23.33;;;;;30.37;43.52;101173.09;4810247;29;45269;-92
2021/07/23 09:04:46;;;;;;;;;22.67;22.00;;;;;30.37;43.44;101152.28;4794557;29;48037;-91
2021/07/23 09:08:01;;;;;;;;;23.00;20.00;;;;;30.63;43.75;101170.63;4794632;29;45541;-92
2021/07/23 09:10:31;;;;;;;;;18.00;17.00;;;;;30.80;43.29;101156.03;4757940;29;45556;-91
2021/07/23 09:13:10;;;;;;;;;22.00;19.00;;;;;31.29;42.51;101166.63;4758810;29;45435;-93
2021/07/23 09:15:46;;;;;;;;;21.33;18.33;;;;;31.54;42.65;101149.63;4767431;29;48102;-94
2021/07/23 09:18:41;;;;;;;;;;;;;;;;;;;;;
2021/07/23 09:21:08;;;;;;;;;22.67;21.00;;;;;32.24;40.27;101132.41;4771927;29;67891;-89
2021/07/23 09:23:35;;;;;;;;;21.67;19.67;;;;;32.50;41.09;101140.59;4758396;29;45553;-91
2021/07/23 09:26:28;;;;;;;;;20.33;17.67;;;;;32.55;40.49;101134.84;4757787;29;47153;-91
2021/07/23 09:28:55;;;;;;;;;20.33;19.33;;;;;32.64;39.94;101130.66;4758246;29;45749;-91
2021/07/23 09:31:23;;;;;;;;;19.67;17.67;;;;;32.78;39.87;101126.94;4759139;29;45336;-92
2021/07/23 09:33:53;;;;;;;;;17.00;17.00;;;;;32.89;39.13;101120.72;4758894;29;45487;-93
2021/07/23 09:36:19;;;;;;;;;18.67;18.00;;;;;32.97;37.88;101117.44;4773992;29;45559;-93
2021/07/23 09:38:46;;;;;;;;;20.00;18.33;;;;;33.09;38.07;101127.44;4774791;29;45474;-92
2021/07/23 09:41:36;;;;;;;;;;;;;;;;;;;;;
2021/07/23 09:44:43;;;;;;;;;24.33;19.33;;;;;33.00;38.33;101128.09;4773886;29;63455;-93
2021/07/23 09:47:50;;;;;;;;;;;;;;;;;;;;;
2021/07/23 09:51:02;;;;;;;;;;;;;;;;;;;;;
2021/07/23 10:03:11;;;;;;;;;15.00;14.00;;;;;33.20;36.42;101090.41;4793232;29;45441;-93
2021/07/23 10:05:45;;;;;;;;;17.33;17.00;;;;;33.20;36.89;101063.16;4790681;24;45509;-93
2021/07/23 10:08:29;;;;;;;;;22.33;17.00;;;;;33.27;37.01;101059.00;5116536;24;45935;-93
2021/07/23 10:10:57;;;;;;;;;16.33;16.33;;;;;33.26;36.99;101058.13;4824913;29;47170;-94
2021/07/23 10:13:27;;;;;;;;;17.00;17.00;;;;;33.19;36.45;101061.44;4828419;29;46280;-92
2021/07/23 10:18:18;;;;;;;;;16.33;16.00;;;;;32.81;37.99;101047.75;4804499;24;60988;-92
2021/07/23 10:21:02;;;;;;;;;19.67;17.33;;;;;32.59;37.89;101039.31;4781557;29;45472;-93
2021/07/23 10:26:06;;;;;;;;;20.00;20.00;;;;;32.55;36.75;101031.47;4770956;27;45475;-90
2021/07/23 10:28:42;;;;;;;;;17.67;17.33;;;;;32.49;37.14;101030.03;4829146;29;45542;-93
2021/07/23 10:31:28;;;;;;;;;19.33;19.00;;;;;32.41;37.99;101022.44;4830856;29;45690;-90
2021/07/23 10:34:02;;;;;;;;;15.67;15.67;;;;;32.40;37.82;101028.88;4827812;29;45821;-93
2021/07/23 10:36:27;;;;;;;;;17.00;14.33;;;;;32.36;36.91;101016.47;4831130;29;45225;-93
2021/07/23 10:41:21;;;;;;;;;16.67;16.00;;;;;32.40;37.91;101012.53;4916142;23;73928;-91
2021/07/23 10:43:46;;;;;;;;;20.33;14.67;;;;;32.45;37.63;100983.16;4827662;29;45316;-91
2021/07/23 10:46:50;;;;;;;;;19.00;18.00;;;;;32.66;36.83;100982.59;4828929;29;45804;-92
2021/07/23 10:52:38;;;;;;;;;17.67;17.00;;;;;33.06;37.46;100975.19;4811840;24;45534;-92
2021/07/23 10:55:53;;;;;;;;;;;;;;;;;;;;;
2021/07/23 10:58:18;;;;;;;;;22.00;18.33;;;;;33.63;36.85;100978.16;4718091;30;68308;-92
2021/07/23 11:00:50;;;;;;;;;18.00;17.33;;;;;33.87;36.13;100972.81;4719482;30;45328;-91
2021/07/23 11:03:35;;;;;;;;;20.67;18.33;;;;;34.13;36.17;100961.69;4713665;30;47422;-93
2021/07/23 11:06:01;;;;;;;;;19.00;18.33;;;;;34.30;36.28;100960.38;4841359;24;45499;-91
2021/07/23 11:12:11;;;;;;;;;20.33;18.00;;;;;34.81;35.17;100949.06;4808612;29;46094;-90
2021/07/23 11:14:38;;;;;;;;;20.33;19.00;;;;;35.01;35.02;100944.63;4757115;29;48021;-93
2021/07/23 11:22:12;;;;;;;;;19.67;17.67;;;;;35.49;33.82;100919.75;5336023;24;60533;-93
2021/07/23 11:28:32;;;;;;;;;17.33;17.33;;;;;35.70;32.92;100922.50;4843859;24;71939;-93
2021/07/23 11:31:34;;;;;;;;;14.33;14.00;;;;;35.83;32.92;100938.72;4748168;29;45495;-92
2021/07/23 11:34:22;;;;;;;;;14.50;13.50;;;;;35.71;32.50;100913.28;4781850;29;47627;-94
2021/07/23 11:36:51;;;;;;;;;14.33;13.00;;;;;35.69;32.11;100920.75;4802231;29;46250;-94
2021/07/23 11:39:21;;;;;;;;;15.67;15.00;;;;;35.63;32.00;100915.81;4847474;24;44968;-95
2021/07/23 11:42:16;;;;;;;;;15.00;14.00;;;;;35.49;32.19;100897.91;5005786;24;45156;-94
2021/07/23 11:45:07;;;;;;;;;12.00;11.67;;;;;35.49;31.56;100906.09;4779140;29;45235;-94
2021/07/23 11:47:35;;;;;;;;;15.33;14.00;;;;;35.34;31.26;100884.56;4761900;29;47214;-94
2021/07/23 11:50:07;;;;;;;;;15.67;14.67;;;;;35.32;30.96;100883.84;4760038;29;45365;-94
2021/07/23 11:56:11;;;;;;;;;;;;;;;;;;;;;
2021/07/23 12:02:26;;;;;;;;;16.67;13.33;;;;;34.84;31.18;100867.75;4805743;29;45396;-94
2021/07/23 12:08:40;;;;;;;;;16.67;14.33;;;;;34.35;31.94;100845.44;4823836;24;46192;-91
2021/07/23 12:30:23;;;;;;;;;16.33;16.00;;;;;33.45;31.84;100806.13;5133984;24;60742;-91
2021/07/23 12:38:59;;;;;;;;;15.00;15.00;;;;;33.18;31.95;100790.97;4941061;24;46979;-93
2021/07/23 12:47:46;;;;;;;;;14.67;14.00;;;;;32.88;33.10;100782.31;4958447;24;45137;-90
2021/07/23 12:53:02;;;;;;;;;15.67;15.33;;;;;32.70;32.84;100774.59;5155996;24;45102;-93
2021/07/23 13:03:19;;;;;;;;;14.67;14.00;;;;;32.42;32.69;100776.66;4104722;24;46301;-89
2021/07/23 13:05:44;;;;;;;;;17.33;16.33;;;;;32.33;32.82;100758.31;4816028;29;48379;-93
2021/07/23 13:08:18;;;;;;;;;15.33;12.67;;;;;32.27;33.14;100758.78;4833997;29;45433;-91
2021/07/23 13:10:45;;;;;;;;;16.67;13.67;;;;;32.20;33.49;100755.66;5322494;24;46699;-94
2021/07/23 13:14:14;;;;;;;;;14.67;14.67;;;;;32.26;32.75;100776.09;4966682;24;44868;-95
2021/07/23 13:17:06;;;;;;;;;;;;;;;;;;;;;
2021/07/23 13:29:59;;;;;;;;;14.67;14.67;;;;;31.82;33.29;100773.75;4806825;29;45210;-94
2021/07/23 13:32:46;;;;;;;;;15.00;14.00;;;;;31.61;33.38;100755.31;5054287;24;45227;-91
2021/07/23 13:35:12;;;;;;;;;10.67;10.33;;;;;31.57;33.68;100757.41;4912650;24;45496;-91
2021/07/23 13:38:01;;;;;;;;;13.00;13.00;;;;;31.52;33.84;100751.41;4836964;24;48212;-94
2021/07/23 13:41:09;;;;;;;;;;;;;;;;;;;;;
2021/07/23 13:43:39;;;;;;;;;16.00;14.00;;;;;31.49;34.24;100740.78;4790726;29;44894;-95
2021/07/23 13:46:41;;;;;;;;;16.33;15.00;;;;;31.32;34.47;100723.84;4808567;29;45247;-92
2021/07/23 13:49:30;;;;;;;;;18.00;17.00;;;;;31.23;34.33;100721.75;4803957;29;45580;-93
2021/07/23 13:51:58;;;;;;;;;17.33;15.33;;;;;31.27;34.10;100737.72;4747949;30;45468;-90
2021/07/23 13:54:23;;;;;;;;;17.00;17.00;;;;;31.08;34.75;100716.44;4748746;30;45347;-91
2021/07/23 13:59:44;;;;;;;;;15.33;15.33;;;;;30.90;34.51;100718.59;4849939;24;74179;-93
2021/07/23 14:03:14;;;;;;;;;14.67;12.67;;;;;30.79;35.28;100709.34;4814390;29;44607;-90
2021/07/23 14:06:19;;;;;;;;;14.33;14.33;;;;;30.70;35.24;100709.97;4934049;24;45297;-93
2021/07/23 14:09:12;;;;;;;;;14.00;14.00;;;;;30.69;35.08;100727.22;4809632;29;45382;-96
2021/07/23 14:12:12;;;;;;;;;17.00;14.67;;;;;30.57;35.23;100724.38;4824654;24;48138;-96
2021/07/23 14:14:43;;;;;;;;;15.33;15.33;;;;;30.57;35.01;100724.38;4737318;30;45445;-89
2021/07/23 14:17:50;;;;;;;;;13.00;13.00;;;;;30.56;35.23;100727.19;4799284;24;45400;-94
2021/07/23 14:20:51;;;;;;;;;21.67;16.67;;;;;30.50;35.75;100733.91;4834166;24;45081;-94
2021/07/23 14:27:03;;;;;;;;;19.00;18.33;;;;;30.42;35.90;100703.72;4845824;24;71461;-93
2021/07/23 14:29:35;;;;;;;;;16.67;15.67;;;;;30.23;36.43;100666.97;5244248;24;46698;-90
2021/07/23 14:32:10;;;;;;;;;17.00;16.00;;;;;30.21;36.25;100668.91;4810920;29;45311;-91
2021/07/23 14:34:57;;;;;;;;;21.33;16.33;;;;;30.21;37.17;100680.63;5239327;24;46575;-91
2021/07/23 14:43:38;;;;;;;;;21.33;16.33;;;;;30.04;36.60;100652.81;4875406;24;45217;-92
2021/07/23 14:46:16;;;;;;;;;15.33;15.33;;;;;30.15;36.99;100673.78;4811281;24;45305;-95
2021/07/23 14:48:41;;;;;;;;;17.67;16.33;;;;;30.00;37.85;100645.00;4768533;29;45434;-94
2021/07/23 14:54:32;;;;;;;;;18.33;16.33;;;;;30.05;37.30;100643.72;4876572;24;45234;-93
2021/07/23 15:07:18;;;;;;;;;18.00;17.00;;;;;29.69;37.76;100627.09;5020347;24;45941;-93
2021/07/23 15:13:18;;;;;;;;;;;;;;;;;;;;;
2021/07/23 15:22:33;;;;;;;;;;;;;;;;;;;;;
2021/07/23 15:28:22;;;;;;;;;20.33;17.33;;;;;29.31;38.06;100597.94;4843597;24;47133;-91
2021/07/23 15:33:27;;;;;;;;;19.33;17.33;;;;;29.35;38.54;100618.44;4852312;24;45186;-93
2021/07/23 15:49:02;;;;;;;;;17.67;17.67;;;;;29.18;38.55;100633.03;4830352;24;46063;-90
2021/07/23 15:52:18;;;;;;;;;;;;;;;;;;;;;
2021/07/23 15:55:30;;;;;;;;;16.00;16.00;;;;;29.11;38.76;100635.25;4808360;29;74956;-93
2021/07/23 15:58:34;;;;;;;;;17.67;16.67;;;;;29.09;38.60;100634.47;4942625;24;45844;-96
2021/07/23 16:01:34;;;;;;;;;16.33;15.00;;;;;28.93;39.38;100610.22;4735644;30;45485;-92
2021/07/23 16:04:22;;;;;;;;;21.00;20.00;;;;;29.00;38.93;100607.00;4683135;30;45630;-94
2021/07/23 16:18:32;;;;;;;;;18.33;14.67;;;;;28.75;39.27;100570.69;5398562;24;46416;-95
2021/07/23 17:17:10;;;;;;;;;33.00;31.25;;;;;28.04;40.73;100487.56;4812923;29;44991;-92
2021/07/23 17:19:48;;;;;;;;;;;;;;;;;;;;;
2021/07/23 17:35:10;;;;;;;;;51.00;42.75;;;;;27.88;41.08;100474.09;4796289;24;45492;-93
2021/07/23 17:37:38;;;;;;;;;52.25;42.00;;;;;27.86;40.80;100478.72;4783561;29;45268;-90
2021/07/23 17:40:12;;;;;;;;;57.25;46.50;;;;;27.79;41.74;100469.25;4798811;29;45348;-93
2021/07/23 17:59:33;;;;;;;;;;;;;;;;;;;;;
2021/07/23 18:04:40;;;;;;;;;54.00;44.50;;;;;27.76;41.56;100483.81;5105662;24;74318;-93
2021/07/23 18:10:26;;;;;;;;;27.75;27.00;;;;;27.81;40.62;100484.41;4845464;24;45007;-95
2021/07/23 18:44:08;;;;;;;;;21.67;18.67;;;;;27.24;43.87;100445.41;4793675;29;46153;-94
2021/07/23 19:02:21;;;;;;;;;20.00;18.33;;;;;27.01;43.71;100431.38;4954171;24;45334;-93
2021/07/23 19:04:52;;;;;;;;;19.33;18.00;;;;;27.14;44.42;100462.09;4774836;29;45445;-92
2021/07/23 19:23:56;;;;;;;;;39.75;33.50;;;;;26.81;43.87;100430.66;5550378;24;71675;-92
2021/07/23 20:05:29;;;;;;;;;19.67;17.33;;;;;26.57;44.58;100453.50;4894657;24;45555;-92
2021/07/23 20:10:25;;;;;;;;;20.00;16.33;;;;;26.64;43.39;100478.31;5452385;24;60568;-92
2021/07/23 21:33:03;;;;;;;;;15.33;15.33;;;;;26.11;45.41;100463.09;1674374;24;46258;-94
2021/07/23 21:39:23;;;;;;;;;17.33;15.00;;;;;25.95;45.60;100441.50;4801367;24;45286;-93
2021/07/23 22:24:01;;;;;;;;;15.00;15.00;;;;;25.89;46.29;100455.28;4784121;24;46022;-92
2021/07/23 22:52:08;;;;;;;;;16.67;16.33;;;;;25.84;46.26;100414.25;5259139;24;46617;-90
